Wink, Texas
Current Conditions -  °F | °C
As of 1:53 PM on Monday 24 Nov 2014 (Local Time) from KINK Reporting Station
Clear Clear  
Wind Chill: 58°   Ceiling: Unl
Heat Index: 58°   Visibility: 10mi
Dew Point:   Wind: 9mph
Humidity: 11%   Direction: 310°NW
Pressure: 30.04"   Gusts: NA
Location:  31.75°N, 103.16°W
Report Text: KINK 241953Z AUTO 31008KT 10SM CLR 14/M16 A3004 RMK AO2 SLP161 T01441161
Loading
Personal Weather Stations






























Interactive Weather Map New forecast layout! Learn more

10-Day Weather Forecast

Advertisements
Track Severe Weather on mobile